createdAt,value
2022-12-08T00:00:21.588Z,1.7
2022-12-08T00:01:31.310Z,2
2022-12-08T00:02:41.131Z,1.6
2022-12-08T00:03:49.723Z,1.7
2022-12-08T00:04:59.454Z,2.2
2022-12-08T00:06:08.155Z,1.9
2022-12-08T00:07:15.904Z,1.8
2022-12-08T00:08:25.761Z,1.9
2022-12-08T00:09:38.926Z,2.1
2022-12-08T00:10:50.025Z,2.3
2022-12-08T00:11:56.678Z,2.1
2022-12-08T00:13:05.406Z,1.5
2022-12-08T00:14:15.152Z,2.2
2022-12-08T00:15:24.882Z,2
2022-12-08T00:16:34.652Z,1.6
2022-12-08T00:17:44.291Z,1.5
2022-12-08T00:18:54.011Z,1.8
2022-12-08T00:20:03.715Z,2.2
2022-12-08T00:21:13.459Z,1.9
2022-12-08T00:22:23.149Z,1.8
2022-12-08T00:23:32.861Z,2.3
2022-12-08T00:24:41.601Z,2.1
2022-12-08T00:25:50.313Z,1.5
2022-12-08T00:26:59.990Z,2.1
2022-12-08T00:28:09.719Z,1.6
2022-12-08T00:29:19.410Z,1.6
2022-12-08T00:30:29.208Z,1.6
2022-12-08T00:31:36.946Z,1.9
2022-12-08T00:32:46.607Z,2.2
2022-12-08T00:33:56.336Z,2.1
2022-12-08T00:35:06.290Z,2.3
2022-12-08T00:36:15.774Z,2.1
2022-12-08T00:37:24.459Z,1.6
2022-12-08T00:38:34.160Z,2
2022-12-08T00:39:43.862Z,1.6
2022-12-08T00:40:52.569Z,1.8
2022-12-08T00:42:01.268Z,2
2022-12-08T00:43:09.951Z,2
2022-12-08T00:44:19.670Z,1.8
2022-12-08T00:45:29.422Z,2
2022-12-08T00:46:38.068Z,1.8
2022-12-08T00:47:47.775Z,2
2022-12-08T00:48:57.480Z,2.1
2022-12-08T00:50:07.403Z,1.8
2022-12-08T00:51:16.923Z,2
2022-12-08T00:52:26.640Z,1.7
2022-12-08T00:53:35.358Z,1.7
2022-12-08T00:54:45.088Z,2
2022-12-08T00:55:53.776Z,2.3
2022-12-08T00:57:03.485Z,1.9
2022-12-08T00:58:13.170Z,1.5
2022-12-08T00:59:22.943Z,1.8
2022-12-08T01:00:32.629Z,2.2
2022-12-08T01:01:42.428Z,1.9
2022-12-08T01:02:52.122Z,2.5
2022-12-08T01:04:01.760Z,2.2
2022-12-08T01:05:11.517Z,2.1
2022-12-08T01:06:21.323Z,1.9
2022-12-08T01:07:30.989Z,2.1
2022-12-08T01:08:39.679Z,2
2022-12-08T01:09:49.368Z,1.9
2022-12-08T01:10:59.088Z,2
2022-12-08T01:12:08.782Z,1.4
2022-12-08T01:13:18.623Z,1.9
2022-12-08T01:14:27.386Z,1.8
2022-12-08T01:15:37.074Z,1.7
2022-12-08T01:16:46.877Z,1.3
2022-12-08T01:17:56.535Z,1.8
2022-12-08T01:19:07.228Z,1.8
2022-12-08T01:20:16.958Z,1.9
2022-12-08T01:21:26.675Z,2
2022-12-08T01:22:36.399Z,1.9
2022-12-08T01:23:44.079Z,1.5
2022-12-08T01:24:52.787Z,1.9
2022-12-08T01:26:02.579Z,1.8
2022-12-08T01:27:12.272Z,1.8
2022-12-08T01:28:21.981Z,2
2022-12-08T01:29:31.712Z,2
2022-12-08T01:30:40.400Z,1.3
2022-12-08T01:31:50.100Z,1.6
2022-12-08T01:32:58.805Z,1.9
2022-12-08T01:34:08.527Z,1.9
2022-12-08T01:35:18.220Z,1.5
2022-12-08T01:36:26.933Z,1.7
2022-12-08T01:37:36.642Z,1.8
2022-12-08T01:38:46.333Z,1.7
2022-12-08T01:39:55.056Z,1.6
2022-12-08T01:41:04.757Z,1.4
2022-12-08T01:42:14.453Z,2.2
2022-12-08T01:43:24.153Z,2.2
2022-12-08T01:44:33.877Z,1.8
2022-12-08T01:45:43.679Z,1.8
2022-12-08T01:46:53.345Z,2.2
2022-12-08T01:48:02.072Z,2.3
2022-12-08T01:49:11.752Z,2.1
2022-12-08T01:50:21.465Z,1.9
2022-12-08T01:51:30.176Z,1.7
2022-12-08T01:52:39.890Z,2.5
2022-12-08T01:53:47.602Z,2.1
2022-12-08T01:54:57.343Z,2.2
2022-12-08T01:56:07.046Z,1.8
2022-12-08T01:57:16.795Z,2
2022-12-08T01:58:26.493Z,2.1
2022-12-08T01:59:35.198Z,1.9
2022-12-08T02:00:42.907Z,1.7
2022-12-08T02:01:52.629Z,2.1
2022-12-08T02:03:01.469Z,2.1
2022-12-08T02:04:11.084Z,2.2
2022-12-08T02:05:20.792Z,1.5
2022-12-08T02:06:29.717Z,2.1
2022-12-08T02:07:39.464Z,1.9
2022-12-08T02:08:49.164Z,2.2
2022-12-08T02:09:58.879Z,2.1
2022-12-08T02:11:08.583Z,2.5
2022-12-08T02:12:16.422Z,2.2
2022-12-08T02:13:26.109Z,2
2022-12-08T02:14:35.886Z,1.9
2022-12-08T02:15:45.654Z,2.4
2022-12-08T02:16:55.360Z,1.9
2022-12-08T02:18:05.099Z,2.3
2022-12-08T02:19:31.552Z,2.4
2022-12-08T02:20:25.504Z,2
2022-12-08T02:21:34.198Z,2.3
2022-12-08T02:22:43.894Z,1.8
2022-12-08T02:23:53.580Z,2
2022-12-08T02:25:03.271Z,2
2022-12-08T02:26:13.001Z,1.9
2022-12-08T02:27:22.721Z,2.1
2022-12-08T02:28:31.431Z,2.4
2022-12-08T02:29:41.172Z,1.9
2022-12-08T02:30:50.978Z,1.4
2022-12-08T02:31:59.587Z,1.9
2022-12-08T02:33:09.308Z,1.9
2022-12-08T02:34:18.996Z,2.2
2022-12-08T02:35:28.721Z,1.9
2022-12-08T02:36:38.406Z,2
2022-12-08T02:37:48.158Z,1.8
2022-12-08T02:38:57.869Z,1.7
2022-12-08T02:40:05.813Z,2.1
2022-12-08T02:41:15.286Z,1.8
2022-12-08T02:42:24.987Z,2
2022-12-08T02:43:34.764Z,2.3
2022-12-08T02:44:44.537Z,2
2022-12-08T02:45:54.227Z,2.6
2022-12-08T02:47:03.926Z,2.1
2022-12-08T02:48:13.632Z,2.2
2022-12-08T02:49:23.338Z,3
2022-12-08T02:50:33.039Z,2.8
2022-12-08T02:51:42.763Z,2.7
2022-12-08T02:52:52.469Z,2.5
2022-12-08T02:54:02.205Z,2.7
2022-12-08T02:55:11.932Z,2.5
2022-12-08T02:56:21.760Z,2.2
2022-12-08T02:57:31.470Z,2.5
2022-12-08T02:58:41.196Z,2.5
2022-12-08T02:59:49.897Z,2.1
2022-12-08T03:00:59.618Z,1.8
2022-12-08T03:02:09.391Z,2.3
2022-12-08T03:03:19.069Z,2.2
2022-12-08T03:04:28.764Z,2.5
2022-12-08T03:05:37.451Z,3.1
2022-12-08T03:06:47.186Z,2.2
2022-12-08T03:07:55.917Z,2.6
2022-12-08T03:09:05.571Z,2.6
2022-12-08T03:10:15.283Z,2.7
2022-12-08T03:11:24.991Z,2.7
2022-12-08T03:12:34.722Z,2.1
2022-12-08T03:13:44.419Z,2.2
2022-12-08T03:14:54.141Z,2.4
2022-12-08T03:16:03.959Z,2.1
2022-12-08T03:17:13.603Z,2.9
2022-12-08T03:18:23.426Z,2.2
2022-12-08T03:19:33.069Z,2.5
2022-12-08T03:20:42.798Z,2.2
2022-12-08T03:21:52.499Z,2.4
2022-12-08T03:23:02.180Z,2.1
2022-12-08T03:24:10.931Z,2.5
2022-12-08T03:25:20.670Z,2.6
2022-12-08T03:26:30.447Z,2.1
2022-12-08T03:27:40.257Z,2.6
2022-12-08T03:28:50.071Z,1.8
2022-12-08T03:29:59.799Z,2.3
2022-12-08T03:31:09.558Z,2
2022-12-08T03:32:19.267Z,2.5
2022-12-08T03:33:29.013Z,2.3
2022-12-08T03:34:38.736Z,2.6
2022-12-08T03:35:47.453Z,2.4
2022-12-08T03:36:56.241Z,2.4
2022-12-08T03:38:05.978Z,2.2
2022-12-08T03:39:14.677Z,2.2
2022-12-08T03:40:24.438Z,2.6
2022-12-08T03:41:34.177Z,2.6
2022-12-08T03:42:42.924Z,2.5
2022-12-08T03:43:52.713Z,1.9
2022-12-08T03:45:01.435Z,2.2
2022-12-08T03:46:11.222Z,2.7
2022-12-08T03:47:20.918Z,2.7
2022-12-08T03:48:30.671Z,2.6
2022-12-08T03:49:39.359Z,2.3
2022-12-08T03:50:48.117Z,2.5
2022-12-08T03:51:57.831Z,2.2
2022-12-08T03:53:07.581Z,2.2
2022-12-08T03:54:17.319Z,3
2022-12-08T03:55:27.038Z,2.9
2022-12-08T03:56:35.734Z,2.6
2022-12-08T03:57:44.468Z,2.6
2022-12-08T03:58:54.251Z,3
2022-12-08T04:00:02.364Z,2.6
2022-12-08T04:01:11.689Z,2.5
2022-12-08T04:02:21.550Z,2.5
2022-12-08T04:03:31.148Z,2.5
2022-12-08T04:04:40.898Z,2.6
2022-12-08T04:05:49.570Z,2.1
2022-12-08T04:06:59.283Z,2.5
2022-12-08T04:08:09.080Z,1.9
2022-12-08T04:09:17.736Z,2.3
2022-12-08T04:10:27.489Z,2.6
2022-12-08T04:11:37.229Z,2.1
2022-12-08T04:12:46.963Z,2.3
2022-12-08T04:13:56.688Z,2
2022-12-08T04:15:05.392Z,2.4
2022-12-08T04:16:15.258Z,2.4
2022-12-08T04:17:25.841Z,1.9
2022-12-08T04:18:34.554Z,2.6
2022-12-08T04:19:44.297Z,2.3
2022-12-08T04:20:52.982Z,2.3
2022-12-08T04:22:02.768Z,2.1
2022-12-08T04:23:12.543Z,2.3
2022-12-08T04:24:21.224Z,2.7
2022-12-08T04:25:30.982Z,2.1
2022-12-08T04:26:40.725Z,2.2
2022-12-08T04:27:50.487Z,3
2022-12-08T04:29:00.223Z,2.3
2022-12-08T04:30:09.971Z,3.1
2022-12-08T04:31:18.758Z,2.2
2022-12-08T04:32:28.432Z,2.8
2022-12-08T04:33:38.208Z,2.5
2022-12-08T04:34:46.992Z,1.9
2022-12-08T04:35:56.725Z,1.9
2022-12-08T04:37:05.443Z,2.3
2022-12-08T04:38:15.167Z,2.1
2022-12-08T04:39:24.897Z,1.9
2022-12-08T04:40:33.648Z,2.3
2022-12-08T04:41:43.387Z,2.1
2022-12-08T04:42:53.113Z,2.1
2022-12-08T04:44:02.859Z,1.9
2022-12-08T04:45:12.675Z,2.7
2022-12-08T04:46:21.443Z,2.8
2022-12-08T04:47:31.100Z,2
2022-12-08T04:48:40.836Z,2.6
2022-12-08T04:49:50.610Z,2.1
2022-12-08T04:51:00.336Z,2.5
2022-12-08T04:52:10.083Z,2.3
2022-12-08T04:53:19.788Z,2.1
2022-12-08T04:54:29.528Z,2.2
2022-12-08T04:55:38.236Z,2.8
2022-12-08T04:56:48.003Z,2.4
2022-12-08T04:57:57.725Z,2.4
2022-12-08T04:59:06.464Z,3.1
2022-12-08T05:00:16.178Z,2.4
2022-12-08T05:01:25.980Z,2.7
2022-12-08T05:02:35.780Z,2.4
2022-12-08T05:03:45.518Z,2.7
2022-12-08T05:04:54.267Z,3.1
2022-12-08T05:06:04.006Z,2.8
2022-12-08T05:07:13.730Z,2.4
2022-12-08T05:08:23.492Z,2.7
2022-12-08T05:09:33.196Z,2.9
2022-12-08T05:10:42.942Z,3
2022-12-08T05:11:52.648Z,3
2022-12-08T05:13:02.385Z,2.8
2022-12-08T05:14:11.114Z,3.6
2022-12-08T05:15:20.874Z,3.4
2022-12-08T05:16:30.833Z,3
2022-12-08T05:17:40.546Z,3
2022-12-08T05:18:50.304Z,2.7
2022-12-08T05:20:00.075Z,3
2022-12-08T05:21:09.780Z,2.6
2022-12-08T05:22:19.522Z,2.8
2022-12-08T05:23:28.238Z,2.7
2022-12-08T05:24:40.314Z,2.8
2022-12-08T05:25:46.956Z,2.9
2022-12-08T05:26:56.693Z,2.8
2022-12-08T05:28:39.381Z,2.8
2022-12-08T05:29:17.240Z,2.9
2022-12-08T05:30:26.981Z,3
2022-12-08T05:31:36.811Z,2.9
2022-12-08T05:32:44.614Z,2.5
2022-12-08T05:33:56.466Z,2.7
2022-12-08T05:35:05.157Z,2.7
2022-12-08T05:36:14.861Z,2.6
2022-12-08T05:37:24.648Z,2.1
2022-12-08T05:38:33.368Z,2.7
2022-12-08T05:39:43.119Z,2.9
2022-12-08T05:40:52.902Z,2.5
2022-12-08T05:42:01.727Z,2.3
2022-12-08T05:43:11.504Z,2.5
2022-12-08T05:44:20.232Z,2.4
2022-12-08T05:45:30.029Z,2
2022-12-08T05:46:39.723Z,2.5
2022-12-08T05:47:49.494Z,2.4
2022-12-08T05:48:59.286Z,2.6
2022-12-08T05:50:09.078Z,2.2
2022-12-08T05:51:18.830Z,2.2
2022-12-08T05:52:28.586Z,2.3
2022-12-08T05:53:39.355Z,2.2
2022-12-08T05:54:49.133Z,2.3
2022-12-08T05:55:58.913Z,2.6
2022-12-08T05:57:06.686Z,2.6
2022-12-08T05:58:16.368Z,2.5
2022-12-08T05:59:25.047Z,2.5
2022-12-08T06:00:33.758Z,2.4
2022-12-08T06:01:43.482Z,2.4
2022-12-08T06:02:51.254Z,2.2
2022-12-08T06:04:00.842Z,1.8
2022-12-08T06:05:10.508Z,2.6
2022-12-08T06:06:18.198Z,2.4
2022-12-08T06:07:27.879Z,2.4
2022-12-08T06:08:37.609Z,2.6
2022-12-08T06:09:46.268Z,2.7
2022-12-08T06:10:56.021Z,2.3
2022-12-08T06:12:04.721Z,2.6
2022-12-08T06:13:14.395Z,2.5
2022-12-08T06:14:24.071Z,2.4
2022-12-08T06:15:32.752Z,2.1
2022-12-08T06:16:41.553Z,2.3
2022-12-08T06:17:50.160Z,2.5
2022-12-08T06:18:59.845Z,2.1
2022-12-08T06:20:09.606Z,2.8
2022-12-08T06:21:17.286Z,2.2
2022-12-08T06:22:26.990Z,2.3
2022-12-08T06:23:35.701Z,2.4
2022-12-08T06:24:43.352Z,2.9
2022-12-08T06:25:53.028Z,3
2022-12-08T06:27:00.715Z,2.4
2022-12-08T06:28:09.396Z,2.7
2022-12-08T06:29:19.085Z,2.5
2022-12-08T06:30:26.778Z,3.2
2022-12-08T06:31:36.518Z,2.4
2022-12-08T06:32:45.146Z,2.6
2022-12-08T06:33:54.019Z,2.4
2022-12-08T06:35:03.747Z,2.9
2022-12-08T06:36:12.414Z,2.3
2022-12-08T06:37:21.127Z,2.7
2022-12-08T06:38:30.848Z,2.1
2022-12-08T06:39:40.504Z,2.6
2022-12-08T06:40:50.204Z,2.2
2022-12-08T06:41:58.897Z,2.7
2022-12-08T06:43:08.594Z,2.7
2022-12-08T06:44:18.277Z,2.7
2022-12-08T06:45:25.959Z,3
2022-12-08T06:46:35.720Z,2.4
2022-12-08T06:47:45.423Z,2.8
2022-12-08T06:48:53.134Z,2.8
2022-12-08T06:50:03.336Z,2.6
2022-12-08T06:51:11.501Z,3.5
2022-12-08T06:52:20.231Z,2.6
2022-12-08T06:53:29.958Z,2.7
2022-12-08T06:54:39.700Z,3.7
2022-12-08T06:55:59.058Z,3
2022-12-08T06:57:00.041Z,3.1
2022-12-08T06:58:09.713Z,2.8
2022-12-08T06:59:19.439Z,3.2
2022-12-08T07:00:29.177Z,3.5
2022-12-08T07:01:36.817Z,3.3
2022-12-08T07:02:46.512Z,3.2
2022-12-08T07:03:56.166Z,2.6
2022-12-08T07:05:05.861Z,3.1
2022-12-08T07:06:14.542Z,3.4
2022-12-08T07:07:23.245Z,3.2
2022-12-08T07:08:33.006Z,3.5
2022-12-08T07:09:41.676Z,3.3
2022-12-08T07:10:49.327Z,3.2
2022-12-08T07:11:59.044Z,3.8
2022-12-08T07:13:06.751Z,3.2
2022-12-08T07:14:15.507Z,3.5
2022-12-08T07:15:25.216Z,3.7
2022-12-08T07:16:32.984Z,3.2
2022-12-08T07:17:42.609Z,2.9
2022-12-08T07:18:52.285Z,3.2
2022-12-08T07:20:01.116Z,3.1
2022-12-08T07:21:09.811Z,2.9
2022-12-08T07:22:17.504Z,3.1
2022-12-08T07:23:27.191Z,3.3
2022-12-08T07:24:36.865Z,2.7
2022-12-08T07:25:45.568Z,2.9
2022-12-08T07:26:55.279Z,2.2
2022-12-08T07:28:03.981Z,2.5
2022-12-08T07:29:11.643Z,2.8
2022-12-08T07:30:21.320Z,2.2
2022-12-08T07:31:30.977Z,2.3
2022-12-08T07:32:39.710Z,2.3
2022-12-08T07:33:49.377Z,2.2
2022-12-08T07:34:59.056Z,2.5
2022-12-08T07:36:08.746Z,3
2022-12-08T07:37:18.445Z,2.6
2022-12-08T07:38:28.633Z,2.2
2022-12-08T07:39:38.314Z,2.4
2022-12-08T07:40:45.997Z,2.6
2022-12-08T07:41:55.694Z,1.8
2022-12-08T07:43:05.319Z,2.1
2022-12-08T07:44:14.047Z,2.1
2022-12-08T07:45:29.843Z,2.2
2022-12-08T07:46:33.458Z,1.6
2022-12-08T07:47:43.065Z,2.1
2022-12-08T07:48:51.748Z,2.7
2022-12-08T07:49:59.446Z,2.6
2022-12-08T07:51:09.142Z,2.5
2022-12-08T07:52:18.836Z,2.1
2022-12-08T07:53:27.548Z,2.4
2022-12-08T07:54:37.292Z,2.5
2022-12-08T07:55:44.997Z,2.1
2022-12-08T07:56:53.674Z,2.7
2022-12-08T07:58:01.378Z,2.2
2022-12-08T07:59:09.031Z,2.5
2022-12-08T08:00:18.757Z,2.1
2022-12-08T08:01:28.624Z,2.3
2022-12-08T08:02:37.250Z,2.2
2022-12-08T08:03:46.799Z,2
2022-12-08T08:04:54.553Z,1.8
2022-12-08T08:06:04.158Z,2.1
2022-12-08T08:07:12.868Z,2.5
2022-12-08T08:08:21.572Z,2.6
2022-12-08T08:09:31.180Z,2
2022-12-08T08:10:38.844Z,2.4
2022-12-08T08:12:07.417Z,2.1
2022-12-08T08:12:59.926Z,1.7
2022-12-08T08:14:08.640Z,2
2022-12-08T08:15:17.311Z,1.8
2022-12-08T08:16:26.111Z,1.9
2022-12-08T08:17:33.850Z,1.9
2022-12-08T08:18:43.353Z,2.1
2022-12-08T08:19:52.015Z,1.5
2022-12-08T08:21:06.849Z,1.9
2022-12-08T08:22:12.392Z,2
2022-12-08T08:23:21.066Z,2.6
2022-12-08T08:24:30.750Z,2.4
2022-12-08T08:25:39.433Z,2.1
2022-12-08T08:26:47.107Z,2.3
2022-12-08T08:27:56.824Z,1.7
2022-12-08T08:29:04.474Z,2
2022-12-08T08:30:19.865Z,2.4
2022-12-08T08:31:24.969Z,1.7
2022-12-08T08:32:34.559Z,1.8
2022-12-08T08:33:44.233Z,1.7
2022-12-08T08:34:52.955Z,2.2
2022-12-08T08:36:02.671Z,1.7
2022-12-08T08:37:12.434Z,2
2022-12-08T08:38:21.004Z,1.9
2022-12-08T08:39:29.682Z,1.7
2022-12-08T08:40:39.348Z,1.8
2022-12-08T08:41:48.045Z,1.5
2022-12-08T08:42:57.756Z,0.9
2022-12-08T08:44:06.436Z,1.7
2022-12-08T08:45:15.119Z,2.4
2022-12-08T08:46:24.876Z,1.1
2022-12-08T08:47:32.496Z,1.5
2022-12-08T08:48:42.180Z,1.6
2022-12-08T08:49:51.864Z,2
2022-12-08T08:50:59.563Z,2.2
2022-12-08T08:52:09.289Z,2.4
2022-12-08T08:53:18.024Z,2.6
2022-12-08T08:54:25.709Z,2.3
2022-12-08T08:55:35.398Z,3.4
2022-12-08T08:56:44.092Z,2.5
2022-12-08T08:57:52.754Z,2.1
2022-12-08T08:59:02.420Z,2.4
2022-12-08T09:00:10.225Z,1.7
2022-12-08T09:01:19.916Z,1.5
2022-12-08T09:02:29.523Z,2
2022-12-08T09:03:38.159Z,1.9
2022-12-08T09:04:47.965Z,2.4
2022-12-08T09:05:55.610Z,1.3
2022-12-08T09:07:04.197Z,1.5
2022-12-08T09:08:13.871Z,1.5
2022-12-08T09:09:22.518Z,1.3
2022-12-08T09:10:32.210Z,1.6
2022-12-08T09:11:41.885Z,1.2
2022-12-08T09:12:49.563Z,1.1
2022-12-08T09:13:59.237Z,1.9
2022-12-08T09:15:06.941Z,2.8
2022-12-08T09:16:15.685Z,2.4
2022-12-08T09:17:25.317Z,1.9
2022-12-08T09:18:34.026Z,1.6
2022-12-08T09:19:43.689Z,2.3
2022-12-08T09:20:52.437Z,1.4
2022-12-08T09:22:01.134Z,1.4
2022-12-08T09:23:10.839Z,1.7
2022-12-08T09:24:19.555Z,2.1
2022-12-08T09:25:28.220Z,1.4
2022-12-08T09:26:37.905Z,2.4
2022-12-08T09:27:47.595Z,1.9
2022-12-08T09:28:57.315Z,2.2
2022-12-08T09:30:06.366Z,1.6
2022-12-08T09:31:14.893Z,1.7
2022-12-08T09:32:24.523Z,1.9
2022-12-08T09:33:32.255Z,1.5
2022-12-08T09:34:41.037Z,1.7
2022-12-08T09:35:50.684Z,2
2022-12-08T09:37:00.358Z,1.9
2022-12-08T09:38:10.049Z,1.8
2022-12-08T09:39:19.768Z,1.2
2022-12-08T09:40:29.420Z,1.3
2022-12-08T09:41:41.943Z,1.5
2022-12-08T09:42:48.740Z,1.4
2022-12-08T09:43:58.418Z,1.1
2022-12-08T09:45:06.120Z,1.3
2022-12-08T09:46:14.878Z,1.2
2022-12-08T09:47:24.472Z,1.2
2022-12-08T09:48:34.162Z,1.3
2022-12-08T09:49:43.871Z,1.3
2022-12-08T09:50:52.553Z,1.9
2022-12-08T09:52:00.206Z,1.7
2022-12-08T09:53:09.876Z,1.4
2022-12-08T09:54:18.547Z,2
2022-12-08T09:55:27.194Z,2.3
2022-12-08T09:56:36.924Z,2
2022-12-08T09:57:45.600Z,2.8
2022-12-08T09:58:55.271Z,2.1
2022-12-08T10:00:05.360Z,2.1
2022-12-08T10:01:12.624Z,1.8
2022-12-08T10:02:22.422Z,1.9
2022-12-08T10:03:31.065Z,1.5
2022-12-08T10:04:40.818Z,1.9
2022-12-08T10:05:50.441Z,1.6
2022-12-08T10:06:58.073Z,1.6
2022-12-08T10:08:07.813Z,1.4
2022-12-08T10:09:22.597Z,1.3
2022-12-08T10:10:26.064Z,1.3
2022-12-08T10:11:35.747Z,1.9
2022-12-08T10:12:44.446Z,1.7
2022-12-08T10:13:52.135Z,1.5
2022-12-08T10:15:01.819Z,1.3
2022-12-08T10:16:13.990Z,1.6
2022-12-08T10:17:21.244Z,1.5
2022-12-08T10:18:28.889Z,1.8
2022-12-08T10:19:36.603Z,1.3
2022-12-08T10:20:46.299Z,1.7
2022-12-08T10:21:55.028Z,1.7
2022-12-08T10:23:04.700Z,1.8
2022-12-08T10:24:14.422Z,1.9
2022-12-08T10:25:23.142Z,2.9
2022-12-08T10:26:32.859Z,2.2
2022-12-08T10:27:41.524Z,1.9
2022-12-08T10:28:50.184Z,1.9
2022-12-08T10:29:59.878Z,1.9
2022-12-08T10:31:09.568Z,2
2022-12-08T10:32:18.223Z,2.2
2022-12-08T10:33:27.884Z,1.7
2022-12-08T10:34:36.565Z,1.7
2022-12-08T10:35:46.270Z,2.7
2022-12-08T10:36:55.980Z,2.4
2022-12-08T10:38:04.718Z,2.8
2022-12-08T10:39:14.417Z,1.9
2022-12-08T10:40:23.129Z,2.2
2022-12-08T10:41:32.823Z,1.9
2022-12-08T10:42:42.563Z,1.7
2022-12-08T10:43:51.261Z,2.3
2022-12-08T10:45:00.966Z,3.4
2022-12-08T10:46:09.756Z,3.9
2022-12-08T10:47:19.394Z,3.2
2022-12-08T10:48:29.105Z,2.5
2022-12-08T10:49:37.870Z,2.4
2022-12-08T10:50:46.548Z,2.5
2022-12-08T10:51:56.258Z,2.5
2022-12-08T10:53:03.967Z,2.1
2022-12-08T10:54:14.547Z,2.1
2022-12-08T10:55:24.390Z,2.6
2022-12-08T10:56:33.064Z,2.2
2022-12-08T10:57:43.043Z,1.7
2022-12-08T10:58:51.801Z,2.6
2022-12-08T11:00:01.725Z,1.7
2022-12-08T11:01:11.380Z,2.6
2022-12-08T11:02:20.387Z,2.3
2022-12-08T11:03:29.825Z,2.1
2022-12-08T11:04:38.536Z,2
2022-12-08T11:05:47.236Z,2.6
2022-12-08T11:06:56.967Z,2.2
2022-12-08T11:08:05.870Z,1.8
2022-12-08T11:09:15.444Z,1.9
2022-12-08T11:10:25.106Z,1.9
2022-12-08T11:11:33.800Z,2.4
2022-12-08T11:12:43.466Z,2.1
2022-12-08T11:13:52.167Z,2.5
2022-12-08T11:14:59.856Z,2.1
2022-12-08T11:16:09.597Z,2.3
2022-12-08T11:17:18.425Z,2.7
2022-12-08T11:18:27.043Z,2.3
2022-12-08T11:19:35.770Z,2.6
2022-12-08T11:20:43.463Z,2
2022-12-08T11:21:53.142Z,2
2022-12-08T11:23:01.877Z,2.7
2022-12-08T11:24:10.549Z,2.6
2022-12-08T11:25:20.264Z,2.3
2022-12-08T11:26:28.930Z,2.9
2022-12-08T11:27:37.614Z,2.6
2022-12-08T11:28:47.340Z,1.9
2022-12-08T11:29:56.040Z,1.9
2022-12-08T11:31:05.777Z,2.6
2022-12-08T11:32:14.431Z,2.6
2022-12-08T11:33:24.134Z,2.2
2022-12-08T11:34:33.838Z,2.2
2022-12-08T11:35:41.550Z,2.4
2022-12-08T11:36:50.238Z,2.4
2022-12-08T11:38:13.620Z,1.9
2022-12-08T11:39:09.629Z,2.8
2022-12-08T11:40:19.319Z,2.6
2022-12-08T11:41:28.037Z,2.4
2022-12-08T11:42:37.712Z,2
2022-12-08T11:43:46.416Z,2.3
2022-12-08T11:44:54.079Z,2.4
2022-12-08T11:46:03.879Z,2.7
2022-12-08T11:47:13.582Z,2.8
2022-12-08T11:48:22.232Z,2.5
2022-12-08T11:49:31.916Z,1.8
2022-12-08T11:50:39.586Z,2.2
2022-12-08T11:51:49.290Z,2.4
2022-12-08T11:52:58.972Z,2.7
2022-12-08T11:54:06.686Z,2
2022-12-08T11:55:16.415Z,2.1
2022-12-08T11:56:25.073Z,1.8
2022-12-08T11:57:33.840Z,2.1
2022-12-08T11:58:43.457Z,3.6
2022-12-08T11:59:52.124Z,2.9
2022-12-08T12:01:01.817Z,1.7
2022-12-08T12:02:10.557Z,1.9
2022-12-08T12:03:19.270Z,2.2
2022-12-08T12:04:28.926Z,1.8
2022-12-08T12:06:05.696Z,2.2
2022-12-08T12:06:56.540Z,2.4
2022-12-08T12:08:00.003Z,3.2
2022-12-08T12:09:07.643Z,2.6
2022-12-08T12:10:17.376Z,2.2
2022-12-08T12:11:27.077Z,2.5
2022-12-08T12:12:39.828Z,2.6
2022-12-08T12:13:47.414Z,2.7
2022-12-08T12:14:57.128Z,2.4
2022-12-08T12:16:06.899Z,2.2
2022-12-08T12:17:16.568Z,2.1
2022-12-08T12:18:24.251Z,2.3
2022-12-08T12:19:33.918Z,2.1
2022-12-08T12:20:43.717Z,2.5
2022-12-08T12:21:51.399Z,2.1
2022-12-08T12:23:01.117Z,2.3
2022-12-08T12:24:08.772Z,2.7
2022-12-08T12:25:18.455Z,2.4
2022-12-08T12:26:28.130Z,2.6
2022-12-08T12:27:36.822Z,2.2
2022-12-08T12:28:46.570Z,2.4
2022-12-08T12:29:56.453Z,2.2
2022-12-08T12:31:04.965Z,2.1
2022-12-08T12:32:14.622Z,2.3
2022-12-08T12:33:24.349Z,2
2022-12-08T12:34:34.050Z,2.8
2022-12-08T12:35:43.718Z,2.9
2022-12-08T12:36:51.384Z,2.6
2022-12-08T12:38:01.127Z,2.4
2022-12-08T12:39:09.858Z,2.4
2022-12-08T12:40:17.499Z,2.2
2022-12-08T12:41:27.166Z,2.3
2022-12-08T12:42:34.887Z,2.3
2022-12-08T12:43:44.509Z,2.7
2022-12-08T12:44:54.225Z,2.3
2022-12-08T12:46:03.879Z,3.5
2022-12-08T12:47:13.563Z,2.7
2022-12-08T12:48:23.378Z,2.2
2022-12-08T12:49:32.062Z,2.7
2022-12-08T12:50:41.742Z,2.4
2022-12-08T12:51:50.439Z,2.9
2022-12-08T12:53:00.149Z,2.3
2022-12-08T12:54:09.815Z,2.6
2022-12-08T12:55:18.530Z,2.2
2022-12-08T12:56:28.200Z,2
2022-12-08T12:57:36.906Z,2.5
2022-12-08T12:58:44.635Z,2.4
2022-12-08T12:59:55.750Z,1.9
2022-12-08T13:01:04.044Z,2.5
2022-12-08T13:02:12.695Z,2
2022-12-08T13:03:22.330Z,2.4
2022-12-08T13:04:32.021Z,2
2022-12-08T13:05:41.718Z,2.3
2022-12-08T13:06:51.469Z,2.6
2022-12-08T13:07:59.205Z,2.8
2022-12-08T13:09:08.921Z,1.9
2022-12-08T13:10:18.636Z,1.9
2022-12-08T13:11:28.316Z,1.8
2022-12-08T13:12:38.045Z,2.7
2022-12-08T13:13:45.734Z,2.1
2022-12-08T13:14:55.409Z,2.3
2022-12-08T13:16:12.851Z,2.5
2022-12-08T13:17:14.851Z,2
2022-12-08T13:18:24.445Z,2
2022-12-08T13:19:32.121Z,2.1
2022-12-08T13:20:41.806Z,3.1
2022-12-08T13:21:51.487Z,2.7
2022-12-08T13:23:00.178Z,1.8
2022-12-08T13:24:09.930Z,2.8
2022-12-08T13:25:19.613Z,2.1
2022-12-08T13:26:29.407Z,2
2022-12-08T13:27:39.027Z,2.5
2022-12-08T13:28:47.676Z,2.5
2022-12-08T13:29:57.384Z,1.9
2022-12-08T13:31:07.128Z,1.8
2022-12-08T13:32:14.751Z,2.9
2022-12-08T13:33:24.459Z,2.2
2022-12-08T13:34:33.153Z,1.9
2022-12-08T13:35:41.860Z,2
2022-12-08T13:36:51.541Z,1.8
2022-12-08T13:38:01.218Z,1.9
2022-12-08T13:39:10.903Z,2
2022-12-08T13:40:18.566Z,2.6
2022-12-08T13:41:28.259Z,2
2022-12-08T13:42:37.916Z,1.9
2022-12-08T13:44:02.454Z,2.6
2022-12-08T13:45:40.026Z,2
2022-12-08T13:47:35.285Z,1.9
2022-12-08T13:49:09.920Z,2
2022-12-08T13:57:05.367Z,2.7
2022-12-08T13:57:55.548Z,2.7
2022-12-08T13:59:05.229Z,2.7
2022-12-08T14:00:13.881Z,3.4
2022-12-08T14:01:22.594Z,2.2
2022-12-08T14:02:32.275Z,2.5
2022-12-08T14:03:52.939Z,2.7
2022-12-08T14:06:12.016Z,2
2022-12-08T14:07:12.455Z,2.8
2022-12-08T14:08:50.667Z,2.6
2022-12-08T14:09:32.752Z,2.3
2022-12-08T14:10:40.446Z,2.5
2022-12-08T14:11:50.147Z,2.7
2022-12-08T14:12:59.876Z,2.8
2022-12-08T14:14:08.908Z,2.6
2022-12-08T14:15:18.874Z,3.7
2022-12-08T14:16:27.434Z,2.6
2022-12-08T14:17:35.090Z,3.4
2022-12-08T14:18:44.806Z,2.9
2022-12-08T14:19:53.685Z,2.8
2022-12-08T14:22:14.171Z,2.6
2022-12-08T14:23:22.850Z,3.4
2022-12-08T14:24:32.625Z,3.3
2022-12-08T14:25:42.293Z,3.6
2022-12-08T14:26:51.012Z,3.8
2022-12-08T14:28:00.721Z,3.9
2022-12-08T14:29:10.535Z,3.4
2022-12-08T14:30:19.253Z,3.4
2022-12-08T14:31:29.000Z,3.9
2022-12-08T14:32:37.717Z,4
2022-12-08T14:33:50.538Z,4.2
2022-12-08T14:34:57.184Z,4
2022-12-08T14:36:05.879Z,5.4
2022-12-08T14:37:15.588Z,4.2
2022-12-08T14:38:23.301Z,4.1
2022-12-08T14:39:32.027Z,4.9
2022-12-08T14:40:39.719Z,3.9
2022-12-08T14:41:48.463Z,3.6
2022-12-08T14:42:59.146Z,3.8
2022-12-08T14:44:08.842Z,3.1
2022-12-08T14:45:16.547Z,2.9
2022-12-08T14:46:26.233Z,3.1
2022-12-08T14:47:34.933Z,2.7
2022-12-08T14:48:44.637Z,2.3
2022-12-08T14:49:54.344Z,2.7
2022-12-08T14:51:04.082Z,3.1
2022-12-08T14:52:13.756Z,2.8
2022-12-08T14:53:23.465Z,3.2
2022-12-08T14:54:31.111Z,2.8
2022-12-08T14:55:40.828Z,2.7
2022-12-08T14:56:49.586Z,2.3
2022-12-08T14:57:59.324Z,2.3
2022-12-08T14:59:08.174Z,2.8
2022-12-08T15:00:17.041Z,2.3
2022-12-08T15:01:26.811Z,2.4
2022-12-08T15:02:35.642Z,2.3
2022-12-08T15:03:50.556Z,2.4
2022-12-08T15:04:56.404Z,2.5
2022-12-08T15:06:05.472Z,2.5
2022-12-08T15:07:16.125Z,2.2
2022-12-08T15:08:26.383Z,2.4
2022-12-08T15:09:35.134Z,2.2
2022-12-08T15:10:44.837Z,2.5
2022-12-08T15:11:53.542Z,2.4
2022-12-08T15:13:01.203Z,2.5
2022-12-08T15:14:10.922Z,2.4
2022-12-08T15:15:19.621Z,2.7
2022-12-08T15:16:29.419Z,2.3
2022-12-08T15:17:39.047Z,2.3
2022-12-08T15:18:48.725Z,1.9
2022-12-08T15:19:58.448Z,2.1
2022-12-08T15:21:07.525Z,2.1
2022-12-08T15:22:15.256Z,2.3
2022-12-08T15:23:24.968Z,2.5
2022-12-08T15:24:34.739Z,1.7
2022-12-08T15:25:43.511Z,1.9
2022-12-08T15:26:53.280Z,1.9
2022-12-08T15:28:01.985Z,2
2022-12-08T15:29:11.683Z,2.6
2022-12-08T15:30:20.834Z,2.1
2022-12-08T15:31:30.711Z,2.4
2022-12-08T15:32:40.345Z,2.3
2022-12-08T15:33:49.060Z,2.5
2022-12-08T15:34:58.766Z,2.3
2022-12-08T15:36:06.446Z,2.3
2022-12-08T15:37:13.195Z,2.3
2022-12-08T15:38:22.853Z,2.5
2022-12-08T15:39:32.664Z,2.9
2022-12-08T15:40:42.320Z,2.4
2022-12-08T15:41:51.106Z,2.7
2022-12-08T15:42:59.773Z,2.7
2022-12-08T15:44:09.446Z,2.4
2022-12-08T15:45:19.128Z,2.6
2022-12-08T15:46:27.864Z,2.6
2022-12-08T15:47:37.465Z,2.4
2022-12-08T15:48:47.200Z,2
2022-12-08T15:49:56.928Z,2.2
2022-12-08T15:51:05.599Z,2
2022-12-08T15:52:15.364Z,1.8
2022-12-08T15:53:25.052Z,2.2
2022-12-08T15:54:34.875Z,2.3
2022-12-08T15:55:58.043Z,2.1
2022-12-08T15:57:18.368Z,2.2
2022-12-08T15:59:17.027Z,2
2022-12-08T16:00:53.714Z,2.3
2022-12-08T16:01:36.471Z,2
2022-12-08T16:03:13.440Z,1.9
2022-12-08T16:07:28.839Z,2.4
2022-12-08T16:08:49.307Z,3
2022-12-08T16:09:48.243Z,3.4
2022-12-08T16:11:34.439Z,3.4
2022-12-08T16:12:10.036Z,3.2
2022-12-08T16:15:55.479Z,2.7
2022-12-08T16:16:51.400Z,2.8
2022-12-08T16:18:01.148Z,2.7